createdAt,value
2018-12-18T00:00:36.003Z,9.40
2018-12-18T00:03:04.750Z,12.00
2018-12-18T00:05:35.846Z,9.83
2018-12-18T00:08:05.786Z,9.05
2018-12-18T00:13:27.598Z,9.30
2018-12-18T00:15:56.356Z,9.27
2018-12-18T00:18:25.202Z,9.00
2018-12-18T00:21:58.362Z,7.95
2018-12-18T00:24:26.997Z,7.63
2018-12-18T00:26:56.769Z,7.70
2018-12-18T00:29:25.337Z,7.93
2018-12-18T00:31:53.899Z,7.20
2018-12-18T00:34:22.853Z,7.60
2018-12-18T00:36:51.580Z,7.33
2018-12-18T00:39:20.163Z,8.90
2018-12-18T00:41:48.750Z,10.43
2018-12-18T00:44:17.717Z,8.70
2018-12-18T00:46:46.610Z,6.90
2018-12-18T00:49:15.215Z,7.17
2018-12-18T00:51:43.914Z,6.47
2018-12-18T00:54:12.825Z,6.13
2018-12-18T00:56:41.707Z,6.70
2018-12-18T00:59:10.691Z,7.17
2018-12-18T01:01:39.665Z,7.30
2018-12-18T01:04:08.488Z,7.33
2018-12-18T01:06:37.221Z,8.03
2018-12-18T01:09:07.464Z,7.70
2018-12-18T01:11:36.575Z,7.22
2018-12-18T01:14:05.382Z,7.60
2018-12-18T01:16:34.265Z,6.77
2018-12-18T01:19:02.777Z,5.77
2018-12-18T01:21:31.792Z,6.30
2018-12-18T01:24:00.342Z,6.53
2018-12-18T01:26:28.992Z,7.50
2018-12-18T01:28:57.788Z,7.27
2018-12-18T01:31:27.472Z,7.17
2018-12-18T01:33:59.281Z,7.53
2018-12-18T01:36:26.952Z,6.93
2018-12-18T01:41:49.005Z,7.67
2018-12-18T01:44:17.751Z,7.30
2018-12-18T01:46:46.924Z,7.33
2018-12-18T01:49:15.544Z,7.83
2018-12-18T01:51:44.279Z,7.75
2018-12-18T01:54:12.887Z,7.07
2018-12-18T01:56:41.842Z,7.93
2018-12-18T01:59:10.527Z,7.20
2018-12-18T02:01:38.997Z,7.87
2018-12-18T02:04:07.642Z,7.70
2018-12-18T02:06:36.361Z,8.00
2018-12-18T02:09:07.558Z,8.30
2018-12-18T02:11:36.118Z,7.90
2018-12-18T02:14:05.450Z,7.80
2018-12-18T02:16:34.479Z,7.70
2018-12-18T02:19:03.223Z,7.73
2018-12-18T02:21:31.729Z,7.53
2018-12-18T02:24:00.243Z,7.55
2018-12-18T02:26:29.004Z,7.47
2018-12-18T02:28:57.940Z,6.60
2018-12-18T02:31:26.694Z,8.23
2018-12-18T02:33:55.384Z,11.80
2018-12-18T02:36:24.092Z,13.60
2018-12-18T02:38:52.753Z,12.70
2018-12-18T02:41:21.698Z,11.30
2018-12-18T02:43:50.559Z,10.10
2018-12-18T02:46:19.341Z,10.65
2018-12-18T02:48:48.267Z,9.37
2018-12-18T02:51:16.900Z,10.50
2018-12-18T02:53:45.683Z,9.60
2018-12-18T02:56:14.616Z,9.65
2018-12-18T02:58:43.253Z,10.50
2018-12-18T03:01:12.136Z,9.43
2018-12-18T03:03:40.948Z,8.07
2018-12-18T03:06:09.641Z,7.80
2018-12-18T03:08:38.937Z,7.57
2018-12-18T03:11:09.577Z,6.70
2018-12-18T03:13:38.469Z,7.70
2018-12-18T03:16:07.635Z,8.10
2018-12-18T03:18:36.160Z,7.03
2018-12-18T03:21:05.046Z,7.83
2018-12-18T03:23:33.796Z,7.47
2018-12-18T03:26:02.505Z,7.30
2018-12-18T03:28:31.389Z,8.63
2018-12-18T03:31:00.210Z,7.60
2018-12-18T03:33:28.849Z,7.30
2018-12-18T03:35:57.568Z,8.03
2018-12-18T03:38:26.077Z,8.40
2018-12-18T03:40:55.241Z,8.20
2018-12-18T03:43:24.564Z,8.10
2018-12-18T03:45:53.356Z,7.63
2018-12-18T03:48:22.048Z,8.40
2018-12-18T03:50:50.724Z,8.25
2018-12-18T03:53:19.252Z,8.13
2018-12-18T03:55:48.158Z,8.47
2018-12-18T03:58:16.915Z,8.63
2018-12-18T04:00:45.907Z,8.27
2018-12-18T04:03:14.595Z,6.73
2018-12-18T04:05:43.224Z,7.70
2018-12-18T04:08:11.860Z,8.00
2018-12-18T04:10:40.620Z,6.57
2018-12-18T04:13:09.781Z,7.73
2018-12-18T04:15:38.926Z,8.37
2018-12-18T04:18:07.873Z,8.13
2018-12-18T04:20:36.463Z,8.23
2018-12-18T04:23:05.180Z,7.72
2018-12-18T04:25:33.842Z,7.57
2018-12-18T04:28:02.825Z,8.38
2018-12-18T04:30:31.616Z,8.37
2018-12-18T04:33:00.198Z,8.75
2018-12-18T04:35:29.809Z,9.40
2018-12-18T04:37:58.636Z,8.53
2018-12-18T04:40:27.310Z,7.83
2018-12-18T04:42:55.990Z,7.13
2018-12-18T04:45:25.023Z,8.43
2018-12-18T04:47:54.184Z,8.73
2018-12-18T04:50:26.228Z,8.80
2018-12-18T04:52:55.057Z,8.57
2018-12-18T04:55:23.813Z,8.13
2018-12-18T04:57:52.343Z,9.10
2018-12-18T05:00:21.051Z,9.10
2018-12-18T05:02:49.951Z,8.47
2018-12-18T05:05:19.439Z,10.43
2018-12-18T05:07:48.250Z,9.10
2018-12-18T05:10:17.196Z,8.87
2018-12-18T05:12:45.948Z,8.10
2018-12-18T05:15:15.622Z,7.60
2018-12-18T05:17:44.465Z,8.47
2018-12-18T05:20:13.113Z,9.20
2018-12-18T05:22:41.726Z,8.30
2018-12-18T05:25:10.480Z,8.23
2018-12-18T05:27:39.192Z,8.85
2018-12-18T05:30:09.839Z,8.00
2018-12-18T05:32:38.567Z,10.50
2018-12-18T05:35:08.542Z,11.70
2018-12-18T05:37:37.525Z,8.55
2018-12-18T05:40:06.798Z,9.67
2018-12-18T05:42:35.494Z,8.80
2018-12-18T05:45:05.305Z,10.93
2018-12-18T05:47:34.177Z,14.30
2018-12-18T05:50:03.280Z,13.67
2018-12-18T05:52:32.019Z,12.40
2018-12-18T05:55:00.797Z,10.50
2018-12-18T05:57:29.624Z,10.00
2018-12-18T05:59:58.399Z,9.50
2018-12-18T06:02:27.324Z,9.83
2018-12-18T06:04:55.978Z,10.30
2018-12-18T06:07:24.590Z,8.70
2018-12-18T06:09:53.606Z,8.18
2018-12-18T06:12:22.614Z,8.33
2018-12-18T06:14:51.257Z,8.47
2018-12-18T06:17:20.498Z,8.83
2018-12-18T06:19:49.489Z,9.80
2018-12-18T06:22:23.342Z,9.23
2018-12-18T06:24:57.454Z,10.87
2018-12-18T06:27:28.822Z,10.33
2018-12-18T06:30:03.112Z,10.53
2018-12-18T06:32:38.771Z,12.60
2018-12-18T06:38:57.126Z,13.70
2018-12-18T06:41:30.703Z,12.33
2018-12-18T06:44:08.448Z,11.55
2018-12-18T06:46:41.588Z,9.53
2018-12-18T06:52:14.481Z,10.03
2018-12-18T06:54:54.103Z,12.70
2018-12-18T07:00:29.218Z,11.23
2018-12-18T07:02:58.234Z,11.10
2018-12-18T07:05:27.498Z,10.50
2018-12-18T07:07:57.560Z,10.27
2018-12-18T07:10:26.450Z,9.33
2018-12-18T07:12:55.476Z,10.80
2018-12-18T07:15:24.537Z,9.20
2018-12-18T07:17:53.565Z,8.67
2018-12-18T07:20:22.426Z,8.63
2018-12-18T07:22:50.844Z,7.93
2018-12-18T07:25:19.415Z,7.90
2018-12-18T07:27:48.473Z,8.37
2018-12-18T07:30:17.101Z,7.77
2018-12-18T07:32:45.945Z,7.90
2018-12-18T07:35:15.004Z,7.10
2018-12-18T07:37:43.571Z,9.23
2018-12-18T07:40:12.611Z,8.77
2018-12-18T07:42:41.240Z,8.57
2018-12-18T07:45:10.235Z,9.57
2018-12-18T07:47:39.175Z,9.30
2018-12-18T07:50:08.447Z,9.90
2018-12-18T07:52:37.216Z,9.33
2018-12-18T07:55:06.359Z,8.60
2018-12-18T07:57:35.342Z,8.47
2018-12-18T08:00:04.837Z,8.60
2018-12-18T08:02:34.184Z,8.93
2018-12-18T08:05:02.942Z,9.30
2018-12-18T08:07:31.757Z,8.83
2018-12-18T08:10:00.476Z,8.37
2018-12-18T08:12:29.264Z,9.97
2018-12-18T08:14:58.742Z,9.28
2018-12-18T08:17:27.634Z,9.33
2018-12-18T08:19:56.308Z,8.50
2018-12-18T08:22:25.256Z,9.07
2018-12-18T08:24:54.105Z,7.90
2018-12-18T08:27:22.884Z,9.10
2018-12-18T08:29:52.131Z,8.17
2018-12-18T08:32:21.303Z,9.60
2018-12-18T08:34:50.291Z,10.40
2018-12-18T08:37:19.031Z,8.97
2018-12-18T08:39:47.988Z,10.07
2018-12-18T08:42:16.987Z,11.33
2018-12-18T08:44:46.010Z,11.30
2018-12-18T08:47:16.296Z,11.70
2018-12-18T08:49:45.098Z,9.40
2018-12-18T08:52:13.756Z,8.00
2018-12-18T08:54:42.298Z,8.10
2018-12-18T08:57:11.105Z,9.10
2018-12-18T08:59:40.255Z,9.53
2018-12-18T09:02:08.841Z,9.30
2018-12-18T09:04:37.778Z,9.37
2018-12-18T09:07:06.726Z,8.40
2018-12-18T09:09:35.600Z,9.03
2018-12-18T09:12:04.390Z,8.67
2018-12-18T09:14:33.199Z,9.40
2018-12-18T09:17:04.022Z,8.90
2018-12-18T09:19:32.713Z,9.57
2018-12-18T09:22:01.360Z,8.60
2018-12-18T09:24:30.326Z,9.03
2018-12-18T09:26:59.381Z,9.30
2018-12-18T09:29:28.146Z,10.65
2018-12-18T09:31:57.053Z,9.17
2018-12-18T09:34:26.147Z,8.50
2018-12-18T09:36:54.732Z,9.53
2018-12-18T09:39:27.999Z,9.93
2018-12-18T13:59:26.936Z,10.20
2018-12-18T14:01:55.956Z,9.93
2018-12-18T14:04:25.252Z,9.13
2018-12-18T14:06:54.069Z,10.00
2018-12-18T14:09:24.052Z,9.87
2018-12-18T14:11:53.378Z,10.50
2018-12-18T14:14:22.843Z,10.93
2018-12-18T14:16:51.893Z,11.30
2018-12-18T14:19:20.757Z,10.97
2018-12-18T14:21:49.900Z,11.10
2018-12-18T14:24:18.930Z,11.80
2018-12-18T14:26:47.607Z,9.60
2018-12-18T14:29:16.139Z,10.40
2018-12-18T14:31:45.384Z,10.83
2018-12-18T14:34:14.411Z,13.37
2018-12-18T14:36:44.290Z,9.13
2018-12-18T14:39:13.204Z,10.57
2018-12-18T14:41:42.248Z,10.77
2018-12-18T14:44:11.256Z,10.70
2018-12-18T14:46:40.409Z,12.70
2018-12-18T14:49:10.765Z,12.33
2018-12-18T14:51:39.782Z,9.97
2018-12-18T14:54:10.565Z,17.67
2018-12-18T14:56:39.402Z,11.60
2018-12-18T14:59:08.430Z,9.03
2018-12-18T15:01:37.207Z,8.97
2018-12-18T15:04:06.395Z,9.10
2018-12-18T15:06:35.538Z,9.10
2018-12-18T15:09:07.766Z,10.90
2018-12-18T15:11:37.309Z,9.70
2018-12-18T15:14:07.317Z,9.90
2018-12-18T15:16:36.754Z,9.30
2018-12-18T15:19:05.696Z,9.60
2018-12-18T15:21:35.547Z,10.47
2018-12-18T15:24:04.406Z,11.90
2018-12-18T15:26:33.009Z,11.33
2018-12-18T15:29:01.911Z,10.33
2018-12-18T15:31:30.469Z,10.10
2018-12-18T15:33:59.200Z,12.57
2018-12-18T15:36:28.146Z,12.83
2018-12-18T15:38:57.061Z,12.97
2018-12-18T15:41:25.587Z,13.10
2018-12-18T15:43:54.603Z,12.67
2018-12-18T15:46:23.593Z,13.47
2018-12-18T15:48:52.646Z,12.57
2018-12-18T15:51:21.306Z,12.17
2018-12-18T15:53:50.171Z,11.17
2018-12-18T15:56:18.854Z,11.10
2018-12-18T15:58:47.347Z,10.98
2018-12-18T16:01:16.240Z,10.70
2018-12-18T16:03:44.960Z,11.60
2018-12-18T16:06:13.927Z,13.10
2018-12-18T16:08:42.793Z,11.83
2018-12-18T16:11:11.665Z,14.37
2018-12-18T16:13:40.460Z,14.00
2018-12-18T16:16:09.804Z,12.97
2018-12-18T16:18:39.003Z,14.13
2018-12-18T16:21:08.304Z,16.80
2018-12-18T16:23:37.484Z,11.50
2018-12-18T16:26:06.427Z,14.80
2018-12-18T16:31:10.925Z,19.63
2018-12-18T16:33:39.761Z,16.53
2018-12-18T16:36:08.580Z,12.80
2018-12-18T16:38:37.645Z,17.73
2018-12-18T16:41:06.825Z,11.70
2018-12-18T16:43:35.563Z,11.63
2018-12-18T16:46:04.362Z,11.80
2018-12-18T16:48:33.038Z,12.83
2018-12-18T16:51:01.714Z,11.35
2018-12-18T16:53:30.312Z,10.33
2018-12-18T16:55:58.884Z,8.90
2018-12-18T16:58:27.680Z,9.23
2018-12-18T17:00:56.479Z,13.23
2018-12-18T17:03:25.585Z,12.03
2018-12-18T17:05:55.241Z,11.87
2018-12-18T17:08:24.708Z,13.00
2018-12-18T17:10:53.718Z,10.40
2018-12-18T17:13:22.979Z,11.23
2018-12-18T17:15:51.975Z,15.17
2018-12-18T17:18:21.130Z,13.47
2018-12-18T17:20:50.344Z,12.90
2018-12-18T17:23:19.574Z,14.07
2018-12-18T17:25:48.458Z,15.80
2018-12-18T17:28:17.444Z,13.80
2018-12-18T17:30:46.252Z,13.63
2018-12-18T17:33:15.475Z,15.57
2018-12-18T17:35:45.034Z,15.53
2018-12-18T17:38:14.217Z,14.97
2018-12-18T17:40:43.351Z,12.60
2018-12-18T17:43:11.940Z,12.33
2018-12-18T17:45:41.032Z,17.75
2018-12-18T17:48:14.170Z,20.90
2018-12-18T17:50:42.979Z,19.30
2018-12-18T17:53:11.574Z,49.18
2018-12-18T17:55:40.589Z,22.05
2018-12-18T17:58:09.576Z,28.60
2018-12-18T18:00:38.836Z,23.60
2018-12-18T18:03:07.786Z,20.77
2018-12-18T18:05:37.967Z,21.50
2018-12-18T18:08:08.266Z,19.00
2018-12-18T18:10:37.549Z,19.23
2018-12-18T18:13:06.332Z,27.27
2018-12-18T18:15:36.347Z,22.65
2018-12-18T18:18:05.332Z,18.00
2018-12-18T18:20:36.523Z,20.43
2018-12-18T18:23:05.444Z,20.40
2018-12-18T18:25:35.580Z,14.00
2018-12-18T18:28:04.655Z,12.47
2018-12-18T18:30:33.748Z,12.40
2018-12-18T18:33:02.710Z,11.50
2018-12-18T18:35:31.737Z,11.57
2018-12-18T18:38:00.917Z,12.80
2018-12-18T18:40:29.959Z,12.60
2018-12-18T18:43:01.158Z,17.40
2018-12-18T18:45:30.003Z,18.17
2018-12-18T18:47:58.711Z,15.60
2018-12-18T18:50:27.540Z,18.80
2018-12-18T18:52:56.807Z,16.00
2018-12-18T18:55:26.779Z,16.85
2018-12-18T18:57:55.529Z,17.90
2018-12-18T19:00:24.710Z,16.57
2018-12-18T19:02:53.500Z,13.70
2018-12-18T19:05:22.534Z,12.93
2018-12-18T19:07:56.598Z,12.43
2018-12-18T19:10:26.565Z,12.37
2018-12-18T19:12:59.555Z,11.93
2018-12-18T19:15:30.042Z,13.93
2018-12-18T19:18:00.117Z,13.77
2018-12-18T19:20:29.019Z,14.20
2018-12-18T19:22:58.080Z,14.20
2018-12-18T19:25:27.459Z,13.63
2018-12-18T19:27:56.252Z,14.23
2018-12-18T19:30:25.725Z,14.45
2018-12-18T19:32:54.696Z,14.00
2018-12-18T19:35:23.555Z,13.40
2018-12-18T19:37:52.441Z,14.83
2018-12-18T19:40:21.746Z,13.32
2018-12-18T19:42:50.941Z,15.00
2018-12-18T19:45:20.155Z,11.80
2018-12-18T19:47:49.031Z,12.97
2018-12-18T19:50:17.829Z,12.77
2018-12-18T19:52:46.385Z,13.37
2018-12-18T19:55:15.402Z,13.00
2018-12-18T19:57:46.325Z,15.60
2018-12-18T20:00:15.634Z,14.10
2018-12-18T20:02:44.376Z,12.00
2018-12-18T20:05:13.849Z,12.03
2018-12-18T20:07:42.637Z,11.28
2018-12-18T20:10:13.072Z,15.70
2018-12-18T20:12:42.320Z,14.47
2018-12-18T20:15:11.453Z,18.40
2018-12-18T20:17:41.419Z,18.10
2018-12-18T20:20:11.227Z,21.20
2018-12-18T20:22:40.516Z,18.05
2018-12-18T20:25:09.851Z,18.77
2018-12-18T20:27:39.063Z,18.90
2018-12-18T20:30:08.176Z,15.87
2018-12-18T20:32:37.358Z,15.30
2018-12-18T20:35:06.394Z,13.10
2018-12-18T20:37:35.698Z,13.00
2018-12-18T20:40:05.559Z,12.40
2018-12-18T20:42:34.987Z,12.57
2018-12-18T20:45:04.490Z,12.90
2018-12-18T20:47:34.116Z,12.00
2018-12-18T20:50:03.273Z,13.07
2018-12-18T20:52:32.323Z,12.57
2018-12-18T20:55:00.913Z,12.70
2018-12-18T20:57:29.853Z,14.40
2018-12-18T20:59:58.457Z,14.33
2018-12-18T21:02:29.318Z,16.43
2018-12-18T21:04:58.669Z,16.50
2018-12-18T21:07:28.603Z,16.27
2018-12-18T21:09:58.485Z,18.20
2018-12-18T21:12:27.975Z,15.17
2018-12-18T21:15:00.674Z,17.30
2018-12-18T21:17:31.936Z,16.20
2018-12-18T21:20:00.988Z,13.63
2018-12-18T21:22:32.017Z,13.10
2018-12-18T21:25:01.671Z,13.07
2018-12-18T21:27:30.872Z,12.97
2018-12-18T21:30:00.132Z,15.30
2018-12-18T21:32:29.112Z,16.73
2018-12-18T21:34:58.310Z,18.20
2018-12-18T21:37:27.977Z,16.87
2018-12-18T21:39:57.761Z,16.47
2018-12-18T21:42:26.706Z,16.00
2018-12-18T21:44:56.936Z,16.73
2018-12-18T21:47:25.875Z,16.67
2018-12-18T21:49:56.639Z,15.23
2018-12-18T21:52:25.529Z,13.03
2018-12-18T21:54:55.280Z,13.73
2018-12-18T21:57:25.211Z,13.57
2018-12-18T21:59:58.515Z,14.10
2018-12-18T22:02:27.327Z,14.90
2018-12-18T22:04:56.654Z,14.23
2018-12-18T22:07:25.833Z,13.70
2018-12-18T22:09:55.706Z,12.60
2018-12-18T22:12:25.471Z,13.13
2018-12-18T22:14:57.423Z,14.27
2018-12-18T22:17:26.302Z,14.40
2018-12-18T22:19:55.601Z,16.90
2018-12-18T22:22:25.126Z,16.97
2018-12-18T22:24:54.395Z,16.43
2018-12-18T22:27:23.404Z,18.70
2018-12-18T22:29:52.800Z,15.33
2018-12-18T22:32:21.986Z,15.07
2018-12-18T22:34:50.842Z,16.30
2018-12-18T22:37:19.624Z,16.50
2018-12-18T22:39:50.453Z,15.75
2018-12-18T22:42:19.568Z,15.53
2018-12-18T22:44:48.578Z,15.80
2018-12-18T22:47:17.446Z,16.87
2018-12-18T22:49:46.317Z,16.50
2018-12-18T22:52:15.719Z,15.77
2018-12-18T22:54:45.001Z,15.00
2018-12-18T22:57:13.965Z,14.97
2018-12-18T22:59:42.973Z,15.45
2018-12-18T23:02:19.339Z,14.87
2018-12-18T23:04:48.320Z,14.50
2018-12-18T23:07:17.670Z,13.60
2018-12-18T23:09:47.189Z,12.27
2018-12-18T23:12:16.348Z,12.90
2018-12-18T23:14:44.875Z,13.10
2018-12-18T23:17:13.804Z,13.37
2018-12-18T23:19:42.785Z,13.10
2018-12-18T23:22:11.967Z,12.87
2018-12-18T23:24:40.794Z,12.43
2018-12-18T23:27:09.692Z,13.73
2018-12-18T23:29:38.896Z,13.23
2018-12-18T23:32:08.049Z,13.67
2018-12-18T23:34:37.506Z,14.00
2018-12-18T23:37:06.617Z,14.93
2018-12-18T23:39:35.756Z,16.00
2018-12-18T23:42:04.823Z,13.10
2018-12-18T23:44:33.867Z,14.37
2018-12-18T23:47:02.735Z,14.30
2018-12-18T23:49:31.557Z,15.00
2018-12-18T23:52:00.979Z,15.47
2018-12-18T23:54:29.548Z,14.77
2018-12-18T23:56:58.012Z,14.07
2018-12-18T23:59:26.620Z,13.93
